createdAt,value
2023-04-26T00:02:30.067Z,90399.99
2023-04-26T00:05:02.465Z,90395.13
2023-04-26T00:07:30.968Z,90393.63
2023-04-26T00:09:59.252Z,90394.97
2023-04-26T00:12:28.058Z,90395.88
2023-04-26T00:14:57.434Z,90393.71
2023-04-26T00:17:34.921Z,90395.00
2023-04-26T00:20:04.519Z,90394.39
2023-04-26T00:22:32.744Z,90395.20
2023-04-26T00:25:01.041Z,90398.84
2023-04-26T00:27:29.247Z,90399.21
2023-04-26T00:29:57.927Z,90399.69
2023-04-26T00:32:26.272Z,90401.96
2023-04-26T00:34:54.462Z,90401.34
2023-04-26T00:37:23.477Z,90402.11
2023-04-26T00:39:51.778Z,90398.59
2023-04-26T00:42:20.096Z,90399.04
2023-04-26T00:44:49.651Z,90400.61
2023-04-26T00:47:17.972Z,90401.42
2023-04-26T00:49:46.170Z,90396.39
2023-04-26T00:52:14.470Z,90398.02
2023-04-26T00:54:42.904Z,90399.14
2023-04-26T00:57:12.472Z,90399.80
2023-04-26T00:59:41.626Z,90400.48
2023-04-26T01:02:10.118Z,90401.23
2023-04-26T01:04:40.244Z,90400.38
2023-04-26T01:07:08.982Z,90400.42
2023-04-26T01:09:37.202Z,90395.53
2023-04-26T01:12:06.816Z,90398.23
2023-04-26T01:14:36.910Z,90391.41
2023-04-26T01:17:06.341Z,90394.05
2023-04-26T01:19:37.768Z,90391.83
2023-04-26T01:22:06.212Z,90393.48
2023-04-26T01:24:35.716Z,90391.76
2023-04-26T01:27:05.496Z,90393.55
2023-04-26T01:29:34.139Z,90393.40
2023-04-26T01:32:02.406Z,90392.63
2023-04-26T01:34:31.033Z,90394.98
2023-04-26T01:36:59.294Z,90394.00
2023-04-26T01:39:29.598Z,90392.89
2023-04-26T01:41:58.871Z,90394.29
2023-04-26T01:44:27.019Z,90394.63
2023-04-26T01:46:55.251Z,90396.17
2023-04-26T01:49:23.635Z,90392.90
2023-04-26T01:51:52.274Z,90387.87
2023-04-26T01:54:20.586Z,90392.73
2023-04-26T01:56:48.838Z,90389.73
2023-04-26T01:59:17.023Z,90387.95
2023-04-26T02:01:45.583Z,90387.20
2023-04-26T02:04:13.917Z,90388.84
2023-04-26T02:06:42.546Z,90389.69
2023-04-26T02:09:10.851Z,90390.39
2023-04-26T02:11:41.512Z,90388.34
2023-04-26T02:14:09.715Z,90384.77
2023-04-26T02:16:39.538Z,90387.22
2023-04-26T02:19:11.085Z,90389.75
2023-04-26T02:21:54.750Z,90386.15
2023-04-26T02:24:23.474Z,90384.46
2023-04-26T02:26:53.138Z,90384.07
2023-04-26T02:29:29.361Z,90383.96
2023-04-26T02:32:05.424Z,90382.64
2023-04-26T02:34:33.899Z,90380.59
2023-04-26T02:37:02.502Z,90379.96
2023-04-26T02:39:31.675Z,90384.55
2023-04-26T02:42:00.296Z,90383.13
2023-04-26T02:44:31.893Z,90384.80
2023-04-26T02:47:00.124Z,90385.58
2023-04-26T02:49:29.324Z,90384.73
2023-04-26T02:51:57.660Z,90387.52
2023-04-26T02:54:26.385Z,90390.63
2023-04-26T02:56:55.549Z,90392.10
2023-04-26T02:59:24.002Z,90391.02
2023-04-26T03:01:52.313Z,90390.05
2023-04-26T03:04:20.868Z,90392.48
2023-04-26T03:06:49.140Z,90394.66
2023-04-26T03:09:17.929Z,90397.85
2023-04-26T03:11:49.612Z,90394.40
2023-04-26T03:14:18.685Z,90394.33
2023-04-26T03:16:48.660Z,90396.86
2023-04-26T03:19:17.090Z,90397.75
2023-04-26T03:21:45.545Z,90396.45
2023-04-26T03:24:13.799Z,90398.45
2023-04-26T03:26:42.045Z,90401.08
2023-04-26T03:29:10.676Z,90397.30
2023-04-26T03:31:39.270Z,90402.44
2023-04-26T03:34:08.222Z,90401.31
2023-04-26T03:36:36.732Z,90408.48
2023-04-26T03:39:06.403Z,90411.09
2023-04-26T03:41:37.067Z,90413.63
2023-04-26T03:44:06.413Z,90417.35
2023-04-26T03:46:34.891Z,90420.67
2023-04-26T03:49:03.111Z,90423.42
2023-04-26T03:51:31.556Z,90423.22
2023-04-26T03:53:59.976Z,90421.70
2023-04-26T03:56:28.267Z,90423.45
2023-04-26T03:58:57.019Z,90424.52
2023-04-26T04:01:26.067Z,90429.69
2023-04-26T04:03:54.658Z,90428.97
2023-04-26T04:06:23.105Z,90429.27
2023-04-26T04:08:52.004Z,90429.31
2023-04-26T04:11:20.624Z,90430.63
2023-04-26T04:13:49.021Z,90433.75
2023-04-26T04:16:17.522Z,90435.09
2023-04-26T04:18:45.790Z,90442.38
2023-04-26T04:21:14.042Z,90444.50
2023-04-26T04:23:43.646Z,90445.63
2023-04-26T04:26:14.264Z,90445.95
2023-04-26T04:28:42.700Z,90453.31
2023-04-26T04:31:11.479Z,90451.21
2023-04-26T04:33:39.786Z,90454.21
2023-04-26T04:36:08.896Z,90454.36
2023-04-26T04:38:37.592Z,90458.93
2023-04-26T04:41:08.649Z,90463.14
2023-04-26T04:43:37.469Z,90463.86
2023-04-26T04:46:05.930Z,90460.69
2023-04-26T04:48:35.691Z,90464.75
2023-04-26T04:51:04.037Z,90460.51
2023-04-26T04:53:32.349Z,90468.63
2023-04-26T04:56:01.133Z,90473.23
2023-04-26T04:58:29.453Z,90475.58
2023-04-26T05:01:01.326Z,90474.41
2023-04-26T05:03:34.010Z,90478.18
2023-04-26T05:06:02.917Z,90476.29
2023-04-26T05:08:31.460Z,90475.61
2023-04-26T05:11:03.335Z,90475.07
2023-04-26T05:13:31.710Z,90479.19
2023-04-26T05:16:00.003Z,90481.73
2023-04-26T05:18:28.318Z,90486.70
2023-04-26T05:20:57.737Z,90486.71
2023-04-26T05:23:26.632Z,90488.14
2023-04-26T05:25:55.071Z,90487.88
2023-04-26T05:28:43.529Z,90489.40
2023-04-26T05:31:40.887Z,90489.54
2023-04-26T05:34:15.171Z,90491.30
2023-04-26T05:36:43.882Z,90493.45
2023-04-26T05:39:12.622Z,90500.83
2023-04-26T05:41:40.885Z,90501.20
2023-04-26T05:44:09.244Z,90497.91
2023-04-26T05:46:37.661Z,90502.89
2023-04-26T05:49:05.881Z,90501.50
2023-04-26T05:51:35.207Z,90502.17
2023-04-26T05:54:03.881Z,90503.34
2023-04-26T05:56:32.393Z,90505.66
2023-04-26T05:59:00.743Z,90509.34
2023-04-26T06:01:29.110Z,90511.33
2023-04-26T06:04:00.291Z,90507.82
2023-04-26T06:06:32.921Z,90509.02
2023-04-26T06:09:01.703Z,90507.96
2023-04-26T06:11:30.394Z,90508.80
2023-04-26T06:13:58.604Z,90510.67
2023-04-26T06:16:27.167Z,90512.39
2023-04-26T06:18:55.551Z,90513.86
2023-04-26T06:21:23.985Z,90519.67
2023-04-26T06:23:53.234Z,90520.72
2023-04-26T06:26:22.532Z,90522.82
2023-04-26T06:28:50.969Z,90522.61
2023-04-26T06:31:20.058Z,90524.41
2023-04-26T06:33:48.739Z,90527.23
2023-04-26T06:36:17.245Z,90528.63
2023-04-26T06:38:45.580Z,90532.61
2023-04-26T06:41:14.583Z,90531.86
2023-04-26T06:43:42.781Z,90535.48
2023-04-26T06:46:21.969Z,90538.19
2023-04-26T06:48:57.908Z,90536.72
2023-04-26T06:51:27.117Z,90545.79
2023-04-26T06:53:55.916Z,90543.33
2023-04-26T06:56:24.074Z,90551.51
2023-04-26T06:59:02.635Z,90554.38
2023-04-26T07:01:34.008Z,90554.75
2023-04-26T07:04:03.763Z,90558.36
2023-04-26T07:06:32.625Z,90562.02
2023-04-26T07:09:01.789Z,90563.48
2023-04-26T07:11:30.454Z,90568.27
2023-04-26T07:13:58.750Z,90570.91
2023-04-26T07:16:27.189Z,90571.14
2023-04-26T07:18:58.539Z,90574.09
2023-04-26T07:21:29.474Z,90577.96
2023-04-26T07:23:58.240Z,90583.02
2023-04-26T07:26:26.677Z,90584.43
2023-04-26T07:28:55.061Z,90588.86
2023-04-26T07:31:23.335Z,90592.69
2023-04-26T07:33:52.039Z,90597.80
2023-04-26T07:36:22.369Z,90598.95
2023-04-26T07:38:51.894Z,90604.67
2023-04-26T07:41:20.104Z,90604.73
2023-04-26T07:43:48.370Z,90614.23
2023-04-26T07:46:16.750Z,90615.46
2023-04-26T07:48:45.145Z,90622.08
2023-04-26T07:51:13.862Z,90621.73
2023-04-26T07:53:42.064Z,90625.84
2023-04-26T07:56:10.360Z,90627.24
2023-04-26T07:58:39.777Z,90636.25
2023-04-26T08:01:08.795Z,90640.58
2023-04-26T08:03:38.485Z,90639.31
2023-04-26T08:06:08.904Z,90639.65
2023-04-26T08:08:43.120Z,90641.91
2023-04-26T08:11:11.538Z,90642.23
2023-04-26T08:13:39.684Z,90645.95
2023-04-26T08:16:08.034Z,90646.42
2023-04-26T08:18:36.723Z,90647.21
2023-04-26T08:21:05.217Z,90649.54
2023-04-26T08:23:35.982Z,90652.07
2023-04-26T08:26:04.380Z,90654.48
2023-04-26T08:28:32.918Z,90656.38
2023-04-26T08:31:01.206Z,90655.92
2023-04-26T08:33:29.559Z,90656.98
2023-04-26T08:35:59.316Z,90657.06
2023-04-26T08:38:27.633Z,90660.73
2023-04-26T08:40:56.417Z,90668.15
2023-04-26T08:43:24.725Z,90670.05
2023-04-26T08:45:53.227Z,90667.36
2023-04-26T08:48:22.052Z,90671.86
2023-04-26T08:50:50.587Z,90675.47
2023-04-26T08:53:18.773Z,90678.66
2023-04-26T08:55:50.576Z,90680.67
2023-04-26T08:58:19.169Z,90684.81
2023-04-26T09:00:48.052Z,90682.28
2023-04-26T09:03:16.406Z,90687.47
2023-04-26T09:05:46.015Z,90688.65
2023-04-26T09:08:16.865Z,90694.75
2023-04-26T09:10:45.189Z,90692.63
2023-04-26T09:13:14.608Z,90693.95
2023-04-26T09:15:43.411Z,90696.11
2023-04-26T09:18:21.682Z,90694.13
2023-04-26T09:21:08.544Z,90700.09
2023-04-26T09:23:36.935Z,90703.89
2023-04-26T09:26:21.178Z,90702.82
2023-04-26T09:28:50.667Z,90705.12
2023-04-26T09:31:36.158Z,90711.81
2023-04-26T09:34:04.446Z,90712.95
2023-04-26T09:36:32.822Z,90709.85
2023-04-26T09:39:01.192Z,90712.77
2023-04-26T09:41:45.158Z,90712.56
2023-04-26T09:44:23.459Z,90719.24
2023-04-26T09:47:02.393Z,90716.32
2023-04-26T09:49:43.661Z,90718.59
2023-04-26T09:52:11.895Z,90723.07
2023-04-26T09:54:41.609Z,90721.48
2023-04-26T09:57:10.888Z,90724.12
2023-04-26T09:59:39.915Z,90726.38
2023-04-26T10:02:10.631Z,90723.38
2023-04-26T10:04:39.480Z,90719.73
2023-04-26T10:07:07.746Z,90721.25
2023-04-26T10:09:36.164Z,90723.59
2023-04-26T10:12:04.940Z,90722.09
2023-04-26T10:14:34.622Z,90718.34
2023-04-26T10:17:04.253Z,90722.05
2023-04-26T10:19:36.276Z,90725.95
2023-04-26T10:22:06.052Z,90725.92
2023-04-26T10:24:34.925Z,90727.70
2023-04-26T10:27:04.612Z,90728.95
2023-04-26T10:29:51.459Z,90724.08
2023-04-26T10:32:20.084Z,90731.91
2023-04-26T10:35:15.848Z,90727.88
2023-04-26T10:37:59.680Z,90723.93
2023-04-26T10:40:36.414Z,90726.38
2023-04-26T10:43:11.191Z,90726.38
2023-04-26T10:45:40.104Z,90728.42
2023-04-26T10:48:20.287Z,90730.48
2023-04-26T10:51:12.746Z,90730.96
2023-04-26T10:53:46.835Z,90737.66
2023-04-26T10:56:24.224Z,90737.19
2023-04-26T10:59:33.141Z,90740.09
2023-04-26T11:02:01.191Z,90744.00
2023-04-26T11:04:48.066Z,90748.86
2023-04-26T11:07:16.351Z,90752.08
2023-04-26T11:09:49.223Z,90754.18
2023-04-26T11:12:17.626Z,90758.19
2023-04-26T11:14:46.431Z,90763.46
2023-04-26T11:17:15.134Z,90770.83
2023-04-26T11:19:43.363Z,90769.52
2023-04-26T11:22:11.646Z,90769.92
2023-04-26T11:24:40.128Z,90780.52
2023-04-26T11:27:09.678Z,90778.95
2023-04-26T11:29:38.399Z,90781.09
2023-04-26T11:32:07.246Z,90781.98
2023-04-26T11:34:38.475Z,90781.89
2023-04-26T11:37:07.184Z,90779.02
2023-04-26T11:39:36.008Z,90781.66
2023-04-26T11:42:11.240Z,90784.79
2023-04-26T11:44:41.272Z,90782.82
2023-04-26T11:47:10.226Z,90788.84
2023-04-26T11:49:38.858Z,90790.41
2023-04-26T11:52:08.424Z,90790.66
2023-04-26T11:54:38.194Z,90797.17
2023-04-26T11:57:17.591Z,90797.15
2023-04-26T11:59:46.470Z,90798.17
2023-04-26T12:02:14.954Z,90797.48
2023-04-26T12:04:44.369Z,90798.89
2023-04-26T12:07:12.761Z,90798.98
2023-04-26T12:09:42.789Z,90796.27
2023-04-26T12:12:11.730Z,90801.89
2023-04-26T12:14:40.832Z,90800.21
2023-04-26T12:17:10.544Z,90798.75
2023-04-26T12:19:39.911Z,90799.73
2023-04-26T12:22:08.954Z,90802.74
2023-04-26T12:24:37.980Z,90804.33
2023-04-26T12:27:09.630Z,90803.52
2023-04-26T12:29:37.907Z,90802.55
2023-04-26T12:32:06.448Z,90805.26
2023-04-26T12:34:34.891Z,90806.67
2023-04-26T12:37:03.902Z,90804.42
2023-04-26T12:39:32.160Z,90805.44
2023-04-26T12:42:00.551Z,90802.14
2023-04-26T12:44:28.901Z,90800.08
2023-04-26T12:46:57.601Z,90803.48
2023-04-26T12:49:25.773Z,90804.23
2023-04-26T12:51:54.044Z,90805.67
2023-04-26T12:54:22.478Z,90806.35
2023-04-26T12:56:51.097Z,90806.56
2023-04-26T12:59:19.330Z,90811.68
2023-04-26T13:01:47.737Z,90814.89
2023-04-26T13:04:16.332Z,90816.54
2023-04-26T13:06:44.848Z,90819.89
2023-04-26T13:09:14.130Z,90821.30
2023-04-26T13:11:42.504Z,90825.33
2023-04-26T13:14:10.868Z,90824.48
2023-04-26T13:16:44.044Z,90829.91
2023-04-26T13:19:12.441Z,90832.02
2023-04-26T13:21:42.132Z,90831.82
2023-04-26T13:24:10.728Z,90833.23
2023-04-26T13:26:39.132Z,90834.12
2023-04-26T13:29:07.420Z,90836.20
2023-04-26T13:31:36.988Z,90836.52
2023-04-26T13:34:05.766Z,90837.94
2023-04-26T13:36:34.515Z,90838.84
2023-04-26T13:39:05.144Z,90838.96
2023-04-26T13:41:35.134Z,90843.70
2023-04-26T13:44:04.575Z,90843.05
2023-04-26T13:46:32.878Z,90841.93
2023-04-26T13:49:01.307Z,90850.50
2023-04-26T13:51:30.896Z,90851.82
2023-04-26T13:53:59.243Z,90846.70
2023-04-26T13:56:27.620Z,90849.77
2023-04-26T13:59:01.332Z,90853.38
2023-04-26T14:01:29.726Z,90849.50
2023-04-26T14:03:58.152Z,90852.04
2023-04-26T14:06:27.172Z,90850.44
2023-04-26T14:08:55.389Z,90855.30
2023-04-26T14:11:23.693Z,90857.81
2023-04-26T14:13:56.163Z,90862.38
2023-04-26T14:16:27.270Z,90868.45
2023-04-26T14:18:55.822Z,90869.12
2023-04-26T14:21:24.443Z,90869.89
2023-04-26T14:23:52.745Z,90870.14
2023-04-26T14:26:21.062Z,90868.68
2023-04-26T14:28:49.601Z,90872.88
2023-04-26T14:31:18.542Z,90876.17
2023-04-26T14:33:47.028Z,90875.52
2023-04-26T14:36:15.623Z,90876.14
2023-04-26T14:38:44.216Z,90881.14
2023-04-26T14:41:16.696Z,90886.20
2023-04-26T14:43:46.599Z,90882.81
2023-04-26T14:46:14.878Z,90882.81
2023-04-26T14:48:46.516Z,90888.95
2023-04-26T14:51:14.682Z,90895.50
2023-04-26T14:53:42.960Z,90898.74
2023-04-26T14:56:11.286Z,90900.23
2023-04-26T14:58:39.661Z,90899.14
2023-04-26T15:01:08.212Z,90898.13
2023-04-26T15:03:36.602Z,90896.14
2023-04-26T15:06:05.044Z,90897.50
2023-04-26T15:08:33.229Z,90905.27
2023-04-26T15:11:01.504Z,90906.83
2023-04-26T15:13:29.857Z,90907.09
2023-04-26T15:15:58.147Z,90908.54
2023-04-26T15:18:26.477Z,90911.58
2023-04-26T15:20:54.888Z,90910.91
2023-04-26T15:23:23.517Z,90911.58
2023-04-26T15:25:51.797Z,90911.30
2023-04-26T15:28:20.095Z,90914.86
2023-04-26T15:30:50.583Z,90914.55
2023-04-26T15:33:19.047Z,90914.45
2023-04-26T15:35:51.170Z,90916.20
2023-04-26T15:38:19.336Z,90912.14
2023-04-26T15:40:48.176Z,90918.86
2023-04-26T15:43:16.780Z,90918.06
2023-04-26T15:45:45.295Z,90919.64
2023-04-26T15:48:13.981Z,90922.06
2023-04-26T15:50:42.287Z,90922.83
2023-04-26T15:53:11.205Z,90926.38
2023-04-26T15:55:39.531Z,90928.20
2023-04-26T15:58:07.904Z,90930.58
2023-04-26T16:00:36.665Z,90929.67
2023-04-26T16:03:05.236Z,90930.81
2023-04-26T16:05:33.763Z,90931.56
2023-04-26T16:08:03.945Z,90934.15
2023-04-26T16:10:32.250Z,90940.94
2023-04-26T16:13:00.507Z,90939.38
2023-04-26T16:15:28.802Z,90943.20
2023-04-26T16:17:57.070Z,90950.92
2023-04-26T16:20:25.514Z,90952.02
2023-04-26T16:22:53.798Z,90952.08
2023-04-26T16:25:22.501Z,90954.91
2023-04-26T16:27:50.850Z,90956.16
2023-04-26T16:30:19.258Z,90959.78
2023-04-26T16:32:47.496Z,90963.48
2023-04-26T16:35:15.835Z,90966.65
2023-04-26T16:37:44.918Z,90970.58
2023-04-26T16:40:13.649Z,90969.45
2023-04-26T16:42:44.784Z,90972.08
2023-04-26T16:45:16.244Z,90978.80
2023-04-26T16:47:45.059Z,90978.31
2023-04-26T16:50:13.393Z,90980.27
2023-04-26T16:52:41.864Z,90983.22
2023-04-26T16:55:10.874Z,90985.30
2023-04-26T16:57:39.191Z,90987.34
2023-04-26T17:00:11.528Z,90991.42
2023-04-26T17:02:40.891Z,90995.38
2023-04-26T17:05:10.281Z,91003.49
2023-04-26T17:07:38.822Z,91007.65
2023-04-26T17:10:07.583Z,91008.13
2023-04-26T17:12:36.192Z,91008.25
2023-04-26T17:15:05.016Z,91012.53
2023-04-26T17:17:33.408Z,91011.37
2023-04-26T17:20:01.757Z,91013.15
2023-04-26T17:22:30.008Z,91014.91
2023-04-26T17:24:58.364Z,91016.39
2023-04-26T17:27:26.971Z,91018.77
2023-04-26T17:29:55.175Z,91019.65
2023-04-26T17:32:23.535Z,91023.20
2023-04-26T17:34:51.819Z,91027.49
2023-04-26T17:37:20.314Z,91033.15
2023-04-26T17:39:48.651Z,91033.34
2023-04-26T17:42:16.976Z,91039.03
2023-04-26T17:44:45.236Z,91044.77
2023-04-26T17:47:13.500Z,91047.27
2023-04-26T17:49:41.822Z,91051.14
2023-04-26T17:52:10.243Z,91052.30
2023-04-26T17:54:38.587Z,91055.52
2023-04-26T17:57:07.939Z,91059.48
2023-04-26T17:59:36.197Z,91060.52
2023-04-26T18:02:04.502Z,91061.70
2023-04-26T18:04:35.632Z,91065.73
2023-04-26T18:07:04.583Z,91065.13
2023-04-26T18:09:32.899Z,91072.11
2023-04-26T18:12:01.766Z,91078.50
2023-04-26T18:14:30.717Z,91082.45
2023-04-26T18:16:58.961Z,91088.43
2023-04-26T18:19:27.524Z,91093.44
2023-04-26T18:21:55.813Z,91096.73
2023-04-26T18:24:24.108Z,91097.33
2023-04-26T18:26:52.437Z,91100.45
2023-04-26T18:29:20.804Z,91104.27
2023-04-26T18:31:49.806Z,91105.77
2023-04-26T18:34:18.371Z,91109.73
2023-04-26T18:36:46.775Z,91112.02
2023-04-26T18:39:15.088Z,91117.60
2023-04-26T18:41:43.480Z,91119.11
2023-04-26T18:44:14.560Z,91117.56
2023-04-26T18:46:44.235Z,91119.38
2023-04-26T18:49:14.914Z,91123.21
2023-04-26T18:51:43.886Z,91120.98
2023-04-26T18:54:12.230Z,91126.42
2023-04-26T18:56:44.118Z,91128.40
2023-04-26T18:59:15.117Z,91133.54
2023-04-26T19:01:43.386Z,91138.41
2023-04-26T19:04:12.343Z,91137.83
2023-04-26T19:06:41.749Z,91142.04
2023-04-26T19:09:12.980Z,91144.59
2023-04-26T19:11:41.341Z,91145.11
2023-04-26T19:14:09.649Z,91143.39
2023-04-26T19:16:38.516Z,91147.58
2023-04-26T19:19:06.781Z,91146.33
2023-04-26T19:21:35.388Z,91147.24
2023-04-26T19:24:04.580Z,91150.02
2023-04-26T19:26:35.045Z,91151.76
2023-04-26T19:29:06.903Z,91155.05
2023-04-26T19:31:38.107Z,91153.23
2023-04-26T19:34:10.773Z,91154.62
2023-04-26T19:36:40.960Z,91158.36
2023-04-26T19:39:09.443Z,91162.30
2023-04-26T19:41:37.733Z,91164.61
2023-04-26T19:44:06.044Z,91163.23
2023-04-26T19:46:34.432Z,91163.77
2023-04-26T19:49:03.054Z,91164.59
2023-04-26T19:51:32.212Z,91167.63
2023-04-26T19:54:00.440Z,91165.83
2023-04-26T19:56:28.697Z,91167.83
2023-04-26T19:58:57.161Z,91168.85
2023-04-26T20:01:25.567Z,91168.55
2023-04-26T20:03:53.915Z,91165.60
2023-04-26T20:06:22.621Z,91167.55
2023-04-26T20:08:51.041Z,91170.84
2023-04-26T20:11:19.436Z,91171.27
2023-04-26T20:13:47.650Z,91176.99
2023-04-26T20:16:16.066Z,91178.39
2023-04-26T20:18:44.432Z,91178.10
2023-04-26T20:21:12.702Z,91179.98
2023-04-26T20:23:41.234Z,91179.02
2023-04-26T20:26:09.954Z,91182.28
2023-04-26T20:28:40.011Z,91182.59
2023-04-26T20:31:08.542Z,91185.42
2023-04-26T20:33:36.919Z,91182.98
2023-04-26T20:36:05.493Z,91187.42
2023-04-26T20:38:33.761Z,91189.32
2023-04-26T20:41:02.325Z,91188.73
2023-04-26T20:43:30.650Z,91187.23
2023-04-26T20:45:58.888Z,91186.59
2023-04-26T20:48:27.190Z,91184.48
2023-04-26T20:50:57.158Z,91184.08
2023-04-26T20:53:25.896Z,91185.18
2023-04-26T20:55:54.329Z,91185.00
2023-04-26T20:58:22.868Z,91186.45
2023-04-26T21:00:55.695Z,91188.34
2023-04-26T21:03:24.216Z,91189.20
2023-04-26T21:05:52.661Z,91188.59
2023-04-26T21:08:21.087Z,91190.34
2023-04-26T21:10:49.429Z,91190.33
2023-04-26T21:13:17.595Z,91190.56
2023-04-26T21:15:46.218Z,91192.52
2023-04-26T21:18:14.431Z,91192.54
2023-04-26T21:20:42.730Z,91191.20
2023-04-26T21:23:11.146Z,91188.30
2023-04-26T21:25:44.625Z,91187.44
2023-04-26T21:28:12.913Z,91189.04
2023-04-26T21:30:41.264Z,91190.30
2023-04-26T21:33:09.625Z,91194.21
2023-04-26T21:35:37.919Z,91195.86
2023-04-26T21:38:06.313Z,91195.66
2023-04-26T21:40:34.690Z,91195.70
2023-04-26T21:43:05.307Z,91195.59
2023-04-26T21:45:34.151Z,91191.81
2023-04-26T21:48:02.404Z,91193.14
2023-04-26T21:50:30.856Z,91193.59
2023-04-26T21:52:59.181Z,91192.99
2023-04-26T21:55:27.396Z,91195.41
2023-04-26T21:57:56.002Z,91197.83
2023-04-26T22:00:24.434Z,91196.82
2023-04-26T22:02:52.969Z,91196.63
2023-04-26T22:05:21.318Z,91199.02
2023-04-26T22:07:49.498Z,91200.58
2023-04-26T22:10:18.021Z,91201.80
2023-04-26T22:12:46.685Z,91203.84
2023-04-26T22:15:15.050Z,91205.04
2023-04-26T22:17:43.480Z,91203.61
2023-04-26T22:20:12.096Z,91200.20
2023-04-26T22:22:40.977Z,91202.07
2023-04-26T22:25:09.526Z,91198.84
2023-04-26T22:27:37.720Z,91197.86
2023-04-26T22:30:23.096Z,91197.64
2023-04-26T22:32:54.947Z,91201.49
2023-04-26T22:35:23.969Z,91202.92
2023-04-26T22:37:52.141Z,91209.46
2023-04-26T22:40:20.785Z,91207.71
2023-04-26T22:42:49.139Z,91207.26
2023-04-26T22:45:17.515Z,91209.48
2023-04-26T22:47:46.194Z,91215.84
2023-04-26T22:50:14.527Z,91213.58
2023-04-26T22:52:42.898Z,91214.26
2023-04-26T22:55:11.449Z,91214.60
2023-04-26T22:57:39.720Z,91210.67
2023-04-26T23:00:10.322Z,91213.84
2023-04-26T23:02:38.638Z,91208.45
2023-04-26T23:05:10.094Z,91210.09
2023-04-26T23:07:39.240Z,91205.86
2023-04-26T23:10:07.904Z,91201.70
2023-04-26T23:12:36.885Z,91204.69
2023-04-26T23:15:06.086Z,91196.80
2023-04-26T23:17:34.840Z,91194.83
2023-04-26T23:20:11.970Z,91196.92
2023-04-26T23:22:41.143Z,91196.75
2023-04-26T23:25:10.208Z,91193.69
2023-04-26T23:27:38.672Z,91191.91
2023-04-26T23:30:07.214Z,91187.04
2023-04-26T23:32:35.738Z,91187.19
2023-04-26T23:35:04.081Z,91184.88
2023-04-26T23:37:32.374Z,91184.85
2023-04-26T23:40:00.757Z,91187.60
2023-04-26T23:42:29.006Z,91186.94
2023-04-26T23:44:57.357Z,91188.91
2023-04-26T23:47:25.928Z,91191.39
2023-04-26T23:49:54.130Z,91192.71
2023-04-26T23:52:22.330Z,91194.10
2023-04-26T23:54:50.630Z,91196.02
2023-04-26T23:57:18.952Z,91198.80
2023-04-26T23:59:47.294Z,91200.02
